sensor_id;sensor_type;location;lat;lon;timestamp;pressure;altitude;pressure_sealevel;temperature;humidity
18819;BME280;9537;45.594;9.294;2023-05-21T00:00:52;99494.16;;;15.49;100.00
18819;BME280;9537;45.594;9.294;2023-05-21T00:01:55;99498.03;;;15.46;100.00
18819;BME280;9537;45.594;9.294;2023-05-21T00:02:56;99495.38;;;15.46;100.00
18819;BME280;9537;45.594;9.294;2023-05-21T00:03:58;99488.00;;;15.48;100.00
18819;BME280;9537;45.594;9.294;2023-05-21T00:04:59;99489.81;;;15.48;100.00
18819;BME280;9537;45.594;9.294;2023-05-21T00:06:01;99490.88;;;15.47;100.00
18819;BME280;9537;45.594;9.294;2023-05-21T00:07:03;99494.56;;;15.46;100.00
18819;BME280;9537;45.594;9.294;2023-05-21T00:08:05;99489.81;;;15.48;100.00
18819;BME280;9537;45.594;9.294;2023-05-21T00:09:06;99491.25;;;15.50;100.00
18819;BME280;9537;45.594;9.294;2023-05-21T00:10:09;99480.22;;;15.47;100.00
18819;BME280;9537;45.594;9.294;2023-05-21T00:11:12;99480.22;;;15.47;100.00
18819;BME280;9537;45.594;9.294;2023-05-21T00:12:14;99489.00;;;15.47;100.00
18819;BME280;9537;45.594;9.294;2023-05-21T00:13:15;99488.19;;;15.47;100.00
18819;BME280;9537;45.594;9.294;2023-05-21T00:14:17;99482.06;;;15.46;100.00
18819;BME280;9537;45.594;9.294;2023-05-21T00:15:18;99488.44;;;15.45;100.00
18819;BME280;9537;45.594;9.294;2023-05-21T00:16:20;99483.91;;;15.46;100.00
18819;BME280;9537;45.594;9.294;2023-05-21T00:17:21;99483.91;;;15.46;100.00
18819;BME280;9537;45.594;9.294;2023-05-21T00:18:25;99479.41;;;15.46;100.00
18819;BME280;9537;45.594;9.294;2023-05-21T00:19:28;99485.53;;;15.47;100.00
18819;BME280;9537;45.594;9.294;2023-05-21T00:20:32;99488.19;;;15.47;100.00
18819;BME280;9537;45.594;9.294;2023-05-21T00:21:33;99478.16;;;15.49;100.00
18819;BME280;9537;45.594;9.294;2023-05-21T00:22:35;99486.97;;;15.49;100.00
18819;BME280;9537;45.594;9.294;2023-05-21T00:23:36;99478.38;;;15.47;100.00
18819;BME280;9537;45.594;9.294;2023-05-21T00:24:39;99482.06;;;15.46;100.00
18819;BME280;9537;45.594;9.294;2023-05-21T00:25:40;99482.69;;;15.48;100.00
18819;BME280;9537;45.594;9.294;2023-05-21T00:26:44;99476.50;;;15.48;100.00
18819;BME280;9537;45.594;9.294;2023-05-21T00:27:45;99477.34;;;15.48;100.00
18819;BME280;9537;45.594;9.294;2023-05-21T00:28:47;99477.34;;;15.48;100.00
18819;BME280;9537;45.594;9.294;2023-05-21T00:29:51;99476.75;;;15.46;100.00
18819;BME280;9537;45.594;9.294;2023-05-21T00:30:53;99471.63;;;15.45;100.00
18819;BME280;9537;45.594;9.294;2023-05-21T00:31:54;99481.84;;;15.48;100.00
18819;BME280;9537;45.594;9.294;2023-05-21T00:32:56;99475.69;;;15.47;100.00
18819;BME280;9537;45.594;9.294;2023-05-21T00:33:58;99469.56;;;15.47;100.00
18819;BME280;9537;45.594;9.294;2023-05-21T00:35:00;99475.69;;;15.47;100.00
18819;BME280;9537;45.594;9.294;2023-05-21T00:36:01;99469.56;;;15.47;100.00
18819;BME280;9537;45.594;9.294;2023-05-21T00:37:03;99464.25;;;15.47;100.00
18819;BME280;9537;45.594;9.294;2023-05-21T00:38:04;99464.47;;;15.45;100.00
18819;BME280;9537;45.594;9.294;2023-05-21T00:39:08;99461.81;;;15.45;100.00
18819;BME280;9537;45.594;9.294;2023-05-21T00:40:10;99452.97;;;15.45;100.00
18819;BME280;9537;45.594;9.294;2023-05-21T00:41:12;99461.19;;;15.43;100.00
18819;BME280;9537;45.594;9.294;2023-05-21T00:42:15;99460.38;;;15.43;100.00
18819;BME280;9537;45.594;9.294;2023-05-21T00:43:18;99456.88;;;15.42;100.00
18819;BME280;9537;45.594;9.294;2023-05-21T00:44:19;99458.53;;;15.43;100.00
18819;BME280;9537;45.594;9.294;2023-05-21T00:45:21;99447.28;;;15.41;100.00
18819;BME280;9537;45.594;9.294;2023-05-21T00:46:23;99455.06;;;15.43;100.00
18819;BME280;9537;45.594;9.294;2023-05-21T00:47:28;99450.75;;;15.42;100.00
18819;BME280;9537;45.594;9.294;2023-05-21T00:48:29;99445.41;;;15.42;100.00
18819;BME280;9537;45.594;9.294;2023-05-21T00:49:31;99444.59;;;15.41;100.00
18819;BME280;9537;45.594;9.294;2023-05-21T00:50:33;99443.78;;;15.41;100.00
18819;BME280;9537;45.594;9.294;2023-05-21T00:51:36;99448.09;;;15.42;100.00
18819;BME280;9537;45.594;9.294;2023-05-21T00:52:37;99453.22;;;15.43;100.00
18819;BME280;9537;45.594;9.294;2023-05-21T00:53:42;99443.56;;;15.42;100.00
18819;BME280;9537;45.594;9.294;2023-05-21T00:54:44;99446.22;;;15.42;100.00
18819;BME280;9537;45.594;9.294;2023-05-21T00:55:46;99449.94;;;15.41;100.00
18819;BME280;9537;45.594;9.294;2023-05-21T00:56:48;99444.41;;;15.43;100.00
18819;BME280;9537;45.594;9.294;2023-05-21T00:57:53;99443.56;;;15.42;100.00
18819;BME280;9537;45.594;9.294;2023-05-21T00:58:54;99441.94;;;15.41;100.00
18819;BME280;9537;45.594;9.294;2023-05-21T00:59:57;99437.44;;;15.42;100.00
18819;BME280;9537;45.594;9.294;2023-05-21T01:00:59;99439.50;;;15.40;100.00
18819;BME280;9537;45.594;9.294;2023-05-21T01:02:03;99444.00;;;15.39;100.00
18819;BME280;9537;45.594;9.294;2023-05-21T01:03:06;99441.31;;;15.39;100.00
18819;BME280;9537;45.594;9.294;2023-05-21T01:04:08;99438.47;;;15.41;100.00
18819;BME280;9537;45.594;9.294;2023-05-21T01:05:09;99438.91;;;15.38;100.00
18819;BME280;9537;45.594;9.294;2023-05-21T01:06:11;99439.72;;;15.38;100.00
18819;BME280;9537;45.594;9.294;2023-05-21T01:07:13;99434.38;;;15.38;100.00
18819;BME280;9537;45.594;9.294;2023-05-21T01:08:16;99434.19;;;15.40;100.00
18819;BME280;9537;45.594;9.294;2023-05-21T01:09:17;99433.34;;;15.39;100.00
18819;BME280;9537;45.594;9.294;2023-05-21T01:10:20;99431.31;;;15.41;100.00
18819;BME280;9537;45.594;9.294;2023-05-21T01:11:22;99433.16;;;15.41;100.00
18819;BME280;9537;45.594;9.294;2023-05-21T01:12:31;99430.25;;;15.42;100.00
18819;BME280;9537;45.594;9.294;2023-05-21T01:13:36;99434.78;;;15.42;100.00
18819;BME280;9537;45.594;9.294;2023-05-21T01:14:40;99432.94;;;15.42;100.00
18819;BME280;9537;45.594;9.294;2023-05-21T01:15:42;99424.13;;;15.42;100.00
18819;BME280;9537;45.594;9.294;2023-05-21T01:16:47;99425.78;;;15.43;100.00
18819;BME280;9537;45.594;9.294;2023-05-21T01:17:50;99430.69;;;15.46;100.00
18819;BME280;9537;45.594;9.294;2023-05-21T01:18:52;99428.84;;;15.46;100.00
18819;BME280;9537;45.594;9.294;2023-05-21T01:19:54;99430.69;;;15.46;100.00
18819;BME280;9537;45.594;9.294;2023-05-21T01:20:57;99428.59;;;15.48;100.00
18819;BME280;9537;45.594;9.294;2023-05-21T01:22:00;99429.03;;;15.45;100.00
18819;BME280;9537;45.594;9.294;2023-05-21T01:23:06;99423.94;;;15.43;100.00
18819;BME280;9537;45.594;9.294;2023-05-21T01:24:08;99420.84;;;15.46;100.00
18819;BME280;9537;45.594;9.294;2023-05-21T01:25:09;99418.19;;;15.46;100.00
18819;BME280;9537;45.594;9.294;2023-05-21T01:26:11;99423.28;;;15.48;100.00
18819;BME280;9537;45.594;9.294;2023-05-21T01:27:12;99423.09;;;15.49;100.00
18819;BME280;9537;45.594;9.294;2023-05-21T01:28:14;99420.63;;;15.48;100.00
18819;BME280;9537;45.594;9.294;2023-05-21T01:29:15;99426.56;;;15.50;100.00
18819;BME280;9537;45.594;9.294;2023-05-21T01:30:18;99429.22;;;15.50;100.00
18819;BME280;9537;45.594;9.294;2023-05-21T01:31:25;99429.84;;;15.52;100.00
18819;BME280;9537;45.594;9.294;2023-05-21T01:32:35;99422.06;;;15.50;100.00
18819;BME280;9537;45.594;9.294;2023-05-21T01:33:44;99419.63;;;15.49;100.00
18819;BME280;9537;45.594;9.294;2023-05-21T01:34:54;99417.16;;;15.47;100.00
18819;BME280;9537;45.594;9.294;2023-05-21T01:36:01;99415.53;;;15.46;100.00
18819;BME280;9537;45.594;9.294;2023-05-21T01:37:13;99412.06;;;15.46;100.00
18819;BME280;9537;45.594;9.294;2023-05-21T01:38:21;99420.84;;;15.46;100.00
18819;BME280;9537;45.594;9.294;2023-05-21T01:39:27;99420.03;;;15.46;100.00
18819;BME280;9537;45.594;9.294;2023-05-21T01:40:34;99414.72;;;15.46;100.00
18819;BME280;9537;45.594;9.294;2023-05-21T01:41:43;99412.25;;;15.44;100.00
18819;BME280;9537;45.594;9.294;2023-05-21T01:42:46;99412.25;;;15.44;100.00
18819;BME280;9537;45.594;9.294;2023-05-21T01:43:49;99411.25;;;15.45;100.00
18819;BME280;9537;45.594;9.294;2023-05-21T01:44:54;99405.91;;;15.45;100.00
18819;BME280;9537;45.594;9.294;2023-05-21T01:45:56;99408.78;;;15.44;100.00
18819;BME280;9537;45.594;9.294;2023-05-21T01:47:00;99403.03;;;15.47;100.00
18819;BME280;9537;45.594;9.294;2023-05-21T01:48:03;99408.34;;;15.47;100.00
18819;BME280;9537;45.594;9.294;2023-05-21T01:49:07;99415.53;;;15.46;100.00
18819;BME280;9537;45.594;9.294;2023-05-21T01:50:09;99405.06;;;15.45;100.00
18819;BME280;9537;45.594;9.294;2023-05-21T01:51:12;99411.44;;;15.44;100.00
18819;BME280;9537;45.594;9.294;2023-05-21T01:52:13;99419.22;;;15.45;100.00
18819;BME280;9537;45.594;9.294;2023-05-21T01:53:17;99413.91;;;15.45;100.00
18819;BME280;9537;45.594;9.294;2023-05-21T01:54:18;99410.41;;;15.45;100.00
18819;BME280;9537;45.594;9.294;2023-05-21T01:55:21;99404.88;;;15.46;100.00
18819;BME280;9537;45.594;9.294;2023-05-21T01:56:24;99414.72;;;15.46;100.00
18819;BME280;9537;45.594;9.294;2023-05-21T01:57:28;99403.47;;;15.44;100.00
18819;BME280;9537;45.594;9.294;2023-05-21T01:58:29;99406.13;;;15.44;100.00
18819;BME280;9537;45.594;9.294;2023-05-21T01:59:31;99399.97;;;15.43;100.00
18819;BME280;9537;45.594;9.294;2023-05-21T02:00:32;99402.03;;;15.41;100.00
18819;BME280;9537;45.594;9.294;2023-05-21T02:01:35;99401.00;;;15.42;100.00
18819;BME280;9537;45.594;9.294;2023-05-21T02:02:37;99405.50;;;15.42;100.00
18819;BME280;9537;45.594;9.294;2023-05-21T02:03:39;99407.34;;;15.41;100.00
18819;BME280;9537;45.594;9.294;2023-05-21T02:04:40;99407.34;;;15.41;100.00
18819;BME280;9537;45.594;9.294;2023-05-21T02:05:43;99410.81;;;15.42;100.00
18819;BME280;9537;45.594;9.294;2023-05-21T02:06:45;99408.97;;;15.42;100.00
18819;BME280;9537;45.594;9.294;2023-05-21T02:07:49;99403.88;;;15.41;100.00
18819;BME280;9537;45.594;9.294;2023-05-21T02:08:52;99404.91;;;15.40;100.00
18819;BME280;9537;45.594;9.294;2023-05-21T02:09:55;99409.19;;;15.41;100.00
18819;BME280;9537;45.594;9.294;2023-05-21T02:10:56;99407.34;;;15.41;100.00
18819;BME280;9537;45.594;9.294;2023-05-21T02:11:58;99411.88;;;15.41;100.00
18819;BME280;9537;45.594;9.294;2023-05-21T02:12:59;99405.72;;;15.40;100.00
18819;BME280;9537;45.594;9.294;2023-05-21T02:14:01;99410.25;;;15.40;100.00
18819;BME280;9537;45.594;9.294;2023-05-21T02:15:04;99413.47;;;15.42;100.00
18819;BME280;9537;45.594;9.294;2023-05-21T02:16:07;99405.72;;;15.40;100.00
18819;BME280;9537;45.594;9.294;2023-05-21T02:17:11;99404.69;;;15.41;100.00
18819;BME280;9537;45.594;9.294;2023-05-21T02:18:13;99404.91;;;15.40;100.00
18819;BME280;9537;45.594;9.294;2023-05-21T02:19:16;99402.44;;;15.38;100.00
18819;BME280;9537;45.594;9.294;2023-05-21T02:20:18;99398.16;;;15.37;100.00
18819;BME280;9537;45.594;9.294;2023-05-21T02:21:20;99400.03;;;15.37;100.00
18819;BME280;9537;45.594;9.294;2023-05-21T02:22:22;99399.19;;;15.36;100.00
18819;BME280;9537;45.594;9.294;2023-05-21T02:23:23;99393.03;;;15.36;100.00
18819;BME280;9537;45.594;9.294;2023-05-21T02:24:27;99397.34;;;15.37;100.00
18819;BME280;9537;45.594;9.294;2023-05-21T02:25:28;99390.38;;;15.36;100.00
18819;BME280;9537;45.594;9.294;2023-05-21T02:26:30;99395.50;;;15.37;100.00
18819;BME280;9537;45.594;9.294;2023-05-21T02:27:32;99392.22;;;15.35;100.00
18819;BME280;9537;45.594;9.294;2023-05-21T02:28:34;99390.59;;;15.34;100.00
18819;BME280;9537;45.594;9.294;2023-05-21T02:29:36;99389.75;;;15.33;100.00
18819;BME280;9537;45.594;9.294;2023-05-21T02:30:37;99388.13;;;15.32;100.00
18819;BME280;9537;45.594;9.294;2023-05-21T02:31:38;99387.09;;;15.33;100.00
18819;BME280;9537;45.594;9.294;2023-05-21T02:32:41;99388.13;;;15.32;100.00
18819;BME280;9537;45.594;9.294;2023-05-21T02:33:43;99389.75;;;15.33;100.00
18819;BME280;9537;45.594;9.294;2023-05-21T02:34:46;99384.44;;;15.33;100.00
18819;BME280;9537;45.594;9.294;2023-05-21T02:35:47;99385.28;;;15.34;100.00
18819;BME280;9537;45.594;9.294;2023-05-21T02:36:49;99390.59;;;15.34;100.00
18819;BME280;9537;45.594;9.294;2023-05-21T02:37:53;99386.09;;;15.35;100.00
18819;BME280;9537;45.594;9.294;2023-05-21T02:38:59;99383.44;;;15.35;100.00
18819;BME280;9537;45.594;9.294;2023-05-21T02:40:03;99389.56;;;15.35;100.00
18819;BME280;9537;45.594;9.294;2023-05-21T02:41:07;99390.59;;;15.34;100.00
18819;BME280;9537;45.594;9.294;2023-05-21T02:42:08;99390.59;;;15.34;100.00
18819;BME280;9537;45.594;9.294;2023-05-21T02:43:10;99388.13;;;15.32;100.00
18819;BME280;9537;45.594;9.294;2023-05-21T02:44:11;99390.59;;;15.34;100.00
18819;BME280;9537;45.594;9.294;2023-05-21T02:45:13;99386.53;;;15.31;100.00
18819;BME280;9537;45.594;9.294;2023-05-21T02:46:14;99384.44;;;15.33;100.00
18819;BME280;9537;45.594;9.294;2023-05-21T02:47:16;99383.22;;;15.36;100.00
18819;BME280;9537;45.594;9.294;2023-05-21T02:48:18;99391.41;;;15.35;100.00
18819;BME280;9537;45.594;9.294;2023-05-21T02:49:20;99398.59;;;15.34;100.00
18819;BME280;9537;45.594;9.294;2023-05-21T02:50:21;99403.69;;;15.36;100.00
18819;BME280;9537;45.594;9.294;2023-05-21T02:51:23;99405.53;;;15.35;100.00
18819;BME280;9537;45.594;9.294;2023-05-21T02:52:24;99401.84;;;15.36;100.00
18819;BME280;9537;45.594;9.294;2023-05-21T02:53:26;99408.00;;;15.37;100.00
18819;BME280;9537;45.594;9.294;2023-05-21T02:54:27;99407.16;;;15.36;100.00
18819;BME280;9537;45.594;9.294;2023-05-21T02:55:31;99412.28;;;15.38;100.00
18819;BME280;9537;45.594;9.294;2023-05-21T02:56:31;99408.00;;;15.37;100.00
18819;BME280;9537;45.594;9.294;2023-05-21T02:57:33;99404.50;;;15.36;100.00
18819;BME280;9537;45.594;9.294;2023-05-21T02:58:35;99413.09;;;15.38;100.00
18819;BME280;9537;45.594;9.294;2023-05-21T02:59:37;99413.31;;;15.37;100.00
18819;BME280;9537;45.594;9.294;2023-05-21T03:00:38;99415.13;;;15.36;100.00
18819;BME280;9537;45.594;9.294;2023-05-21T03:01:40;99424.16;;;15.35;100.00
18819;BME280;9537;45.594;9.294;2023-05-21T03:02:41;99430.28;;;15.36;100.00
18819;BME280;9537;45.594;9.294;2023-05-21T03:03:43;99430.28;;;15.36;100.00
18819;BME280;9537;45.594;9.294;2023-05-21T03:04:44;99429.28;;;15.37;100.00
18819;BME280;9537;45.594;9.294;2023-05-21T03:05:47;99431.94;;;15.37;100.00
18819;BME280;9537;45.594;9.294;2023-05-21T03:06:48;99433.56;;;15.38;100.00
18819;BME280;9537;45.594;9.294;2023-05-21T03:07:51;99430.09;;;15.37;100.00
18819;BME280;9537;45.594;9.294;2023-05-21T03:08:52;99442.59;;;15.37;100.00
18819;BME280;9537;45.594;9.294;2023-05-21T03:09:54;99443.41;;;15.37;100.00
18819;BME280;9537;45.594;9.294;2023-05-21T03:10:57;99449.72;;;15.36;100.00
18819;BME280;9537;45.594;9.294;2023-05-21T03:11:59;99456.91;;;15.36;100.00
18819;BME280;9537;45.594;9.294;2023-05-21T03:13:00;99463.03;;;15.36;100.00
18819;BME280;9537;45.594;9.294;2023-05-21T03:14:04;99468.16;;;15.38;100.00
18819;BME280;9537;45.594;9.294;2023-05-21T03:15:06;99459.38;;;15.37;100.00
18819;BME280;9537;45.594;9.294;2023-05-21T03:16:08;99462.84;;;15.38;100.00
18819;BME280;9537;45.594;9.294;2023-05-21T03:17:09;99459.38;;;15.37;100.00
18819;BME280;9537;45.594;9.294;2023-05-21T03:18:13;99462.84;;;15.38;100.00
18819;BME280;9537;45.594;9.294;2023-05-21T03:19:14;99466.53;;;15.37;100.00
18819;BME280;9537;45.594;9.294;2023-05-21T03:20:16;99459.38;;;15.37;100.00
18819;BME280;9537;45.594;9.294;2023-05-21T03:21:18;99464.69;;;15.37;100.00
18819;BME280;9537;45.594;9.294;2023-05-21T03:22:22;99454.06;;;15.37;100.00
18819;BME280;9537;45.594;9.294;2023-05-21T03:23:23;99450.34;;;15.38;100.00
18819;BME280;9537;45.594;9.294;2023-05-21T03:24:25;99460.19;;;15.38;100.00
18819;BME280;9537;45.594;9.294;2023-05-21T03:25:26;99439.94;;;15.37;100.00
18819;BME280;9537;45.594;9.294;2023-05-21T03:26:30;99445.84;;;15.39;100.00
18819;BME280;9537;45.594;9.294;2023-05-21T03:27:31;99440.53;;;15.39;100.00
18819;BME280;9537;45.594;9.294;2023-05-21T03:28:33;99437.66;;;15.40;100.00
18819;BME280;9537;45.594;9.294;2023-05-21T03:29:34;99441.31;;;15.39;100.00
18819;BME280;9537;45.594;9.294;2023-05-21T03:30:37;99445.66;;;15.40;100.00
18819;BME280;9537;45.594;9.294;2023-05-21T03:31:38;99442.38;;;15.38;100.00
18819;BME280;9537;45.594;9.294;2023-05-21T03:32:40;99445.25;;;15.37;100.00
18819;BME280;9537;45.594;9.294;2023-05-21T03:33:40;99449.72;;;15.36;100.00
18819;BME280;9537;45.594;9.294;2023-05-21T03:34:42;99445.25;;;15.37;100.00
18819;BME280;9537;45.594;9.294;2023-05-21T03:35:43;99447.28;;;15.35;100.00
18819;BME280;9537;45.594;9.294;2023-05-21T03:36:45;99447.28;;;15.35;100.00
18819;BME280;9537;45.594;9.294;2023-05-21T03:37:48;99441.16;;;15.34;100.00
18819;BME280;9537;45.594;9.294;2023-05-21T03:38:48;99449.97;;;15.35;100.00
18819;BME280;9537;45.594;9.294;2023-05-21T03:39:50;99449.72;;;15.36;100.00
18819;BME280;9537;45.594;9.294;2023-05-21T03:40:52;99451.59;;;15.36;100.00
18819;BME280;9537;45.594;9.294;2023-05-21T03:41:56;99447.28;;;15.35;100.00
18819;BME280;9537;45.594;9.294;2023-05-21T03:42:58;99436.66;;;15.35;100.00
18819;BME280;9537;45.594;9.294;2023-05-21T03:44:00;99441.16;;;15.34;100.00
18819;BME280;9537;45.594;9.294;2023-05-21T03:45:01;99440.31;;;15.33;100.00
18819;BME280;9537;45.594;9.294;2023-05-21T03:46:04;99436.84;;;15.33;100.00
18819;BME280;9537;45.594;9.294;2023-05-21T03:47:05;99439.50;;;15.33;100.00
18819;BME280;9537;45.594;9.294;2023-05-21T03:48:07;99434.00;;;15.35;100.00
18819;BME280;9537;45.594;9.294;2023-05-21T03:49:08;99428.66;;;15.35;100.00
18819;BME280;9537;45.594;9.294;2023-05-21T03:50:10;99434.00;;;15.35;100.00
18819;BME280;9537;45.594;9.294;2023-05-21T03:51:13;99427.84;;;15.34;100.00
18819;BME280;9537;45.594;9.294;2023-05-21T03:52:15;99430.53;;;15.34;100.00
18819;BME280;9537;45.594;9.294;2023-05-21T03:53:17;99429.69;;;15.33;100.00
18819;BME280;9537;45.594;9.294;2023-05-21T03:54:19;99426.19;;;15.33;100.00
18819;BME280;9537;45.594;9.294;2023-05-21T03:55:21;99427.03;;;15.33;100.00
18819;BME280;9537;45.594;9.294;2023-05-21T03:56:22;99424.59;;;15.32;100.00
18819;BME280;9537;45.594;9.294;2023-05-21T03:57:26;99426.63;;;15.30;100.00
18819;BME280;9537;45.594;9.294;2023-05-21T03:58:27;99413.31;;;15.30;100.00
18819;BME280;9537;45.594;9.294;2023-05-21T03:59:29;99416.78;;;15.30;100.00
18819;BME280;9537;45.594;9.294;2023-05-21T04:00:30;99413.13;;;15.31;100.00
18819;BME280;9537;45.594;9.294;2023-05-21T04:01:34;99411.28;;;15.32;100.00
18819;BME280;9537;45.594;9.294;2023-05-21T04:02:35;99407.81;;;15.31;100.00
18819;BME280;9537;45.594;9.294;2023-05-21T04:03:37;99407.00;;;15.31;100.00
18819;BME280;9537;45.594;9.294;2023-05-21T04:04:38;99410.47;;;15.31;100.00
18819;BME280;9537;45.594;9.294;2023-05-21T04:05:40;99412.31;;;15.31;100.00
18819;BME280;9537;45.594;9.294;2023-05-21T04:06:41;99411.28;;;15.32;100.00
18819;BME280;9537;45.594;9.294;2023-05-21T04:07:44;99406.56;;;15.34;100.00
18819;BME280;9537;45.594;9.294;2023-05-21T04:08:45;99409.44;;;15.32;100.00
18819;BME280;9537;45.594;9.294;2023-05-21T04:09:48;99411.06;;;15.33;100.00
18819;BME280;9537;45.594;9.294;2023-05-21T04:10:49;99411.06;;;15.33;100.00
18819;BME280;9537;45.594;9.294;2023-05-21T04:11:51;99404.09;;;15.32;100.00
18819;BME280;9537;45.594;9.294;2023-05-21T04:12:53;99408.63;;;15.32;100.00
18819;BME280;9537;45.594;9.294;2023-05-21T04:13:55;99413.94;;;15.32;100.00
18819;BME280;9537;45.594;9.294;2023-05-21T04:14:57;99412.91;;;15.33;100.00
18819;BME280;9537;45.594;9.294;2023-05-21T04:15:58;99414.56;;;15.34;100.00
18819;BME280;9537;45.594;9.294;2023-05-21T04:17:00;99414.75;;;15.32;100.00
18819;BME280;9537;45.594;9.294;2023-05-21T04:18:04;99415.78;;;15.31;100.00
18819;BME280;9537;45.594;9.294;2023-05-21T04:19:07;99416.78;;;15.30;100.00
18819;BME280;9537;45.594;9.294;2023-05-21T04:20:08;99418.03;;;15.35;100.00
18819;BME280;9537;45.594;9.294;2023-05-21T04:21:11;99421.31;;;15.37;100.00
18819;BME280;9537;45.594;9.294;2023-05-21T04:22:12;99428.44;;;15.36;100.00
18819;BME280;9537;45.594;9.294;2023-05-21T04:23:14;99421.50;;;15.35;100.00
18819;BME280;9537;45.594;9.294;2023-05-21T04:24:15;99422.53;;;15.34;100.00
18819;BME280;9537;45.594;9.294;2023-05-21T04:25:17;99420.88;;;15.33;100.00
18819;BME280;9537;45.594;9.294;2023-05-21T04:26:19;99415.56;;;15.33;100.00
18819;BME280;9537;45.594;9.294;2023-05-21T04:27:22;99421.69;;;15.33;100.00
18819;BME280;9537;45.594;9.294;2023-05-21T04:28:25;99419.03;;;15.33;100.00
18819;BME280;9537;45.594;9.294;2023-05-21T04:29:28;99411.91;;;15.34;100.00
18819;BME280;9537;45.594;9.294;2023-05-21T04:30:29;99419.03;;;15.33;100.00
18819;BME280;9537;45.594;9.294;2023-05-21T04:31:35;99420.88;;;15.33;100.00
18819;BME280;9537;45.594;9.294;2023-05-21T04:32:36;99418.66;;;15.37;100.00
18819;BME280;9537;45.594;9.294;2023-05-21T04:33:39;99419.44;;;15.37;100.00
18819;BME280;9537;45.594;9.294;2023-05-21T04:34:45;99415.97;;;15.37;100.00
18819;BME280;9537;45.594;9.294;2023-05-21T04:35:46;99414.94;;;15.38;100.00
18819;BME280;9537;45.594;9.294;2023-05-21T04:36:49;99415.56;;;15.40;100.00
18819;BME280;9537;45.594;9.294;2023-05-21T04:37:51;99417.59;;;15.38;100.00
18819;BME280;9537;45.594;9.294;2023-05-21T04:38:54;99421.31;;;15.37;100.00
18819;BME280;9537;45.594;9.294;2023-05-21T04:39:56;99422.13;;;15.37;100.00
18819;BME280;9537;45.594;9.294;2023-05-21T04:40:58;99422.31;;;15.36;100.00
18819;BME280;9537;45.594;9.294;2023-05-21T04:42:03;99417.22;;;15.34;100.00
18819;BME280;9537;45.594;9.294;2023-05-21T04:43:05;99420.69;;;15.35;100.00
18819;BME280;9537;45.594;9.294;2023-05-21T04:44:09;99418.66;;;15.37;100.00
18819;BME280;9537;45.594;9.294;2023-05-21T04:45:14;99420.28;;;15.38;100.00
18819;BME280;9537;45.594;9.294;2023-05-21T04:46:15;99421.06;;;15.38;100.00
18819;BME280;9537;45.594;9.294;2023-05-21T04:47:17;99421.31;;;15.37;100.00
18819;BME280;9537;45.594;9.294;2023-05-21T04:48:18;99415.97;;;15.37;100.00
18819;BME280;9537;45.594;9.294;2023-05-21T04:49:20;99423.75;;;15.38;100.00
18819;BME280;9537;45.594;9.294;2023-05-21T04:50:22;99420.28;;;15.38;100.00
18819;BME280;9537;45.594;9.294;2023-05-21T04:51:24;99424.78;;;15.37;100.00
18819;BME280;9537;45.594;9.294;2023-05-21T04:52:26;99420.28;;;15.38;100.00
18819;BME280;9537;45.594;9.294;2023-05-21T04:53:28;99417.59;;;15.38;100.00
18819;BME280;9537;45.594;9.294;2023-05-21T04:54:29;99412.28;;;15.38;100.00
18819;BME280;9537;45.594;9.294;2023-05-21T04:55:31;99417.00;;;15.36;100.00
18819;BME280;9537;45.594;9.294;2023-05-21T04:56:32;99415.13;;;15.36;100.00
18819;BME280;9537;45.594;9.294;2023-05-21T04:57:34;99421.88;;;15.39;100.00
18819;BME280;9537;45.594;9.294;2023-05-21T04:58:35;99423.31;;;15.41;100.00
18819;BME280;9537;45.594;9.294;2023-05-21T04:59:41;99424.13;;;15.42;100.00
18819;BME280;9537;45.594;9.294;2023-05-21T05:00:43;99421.47;;;15.42;100.00
18819;BME280;9537;45.594;9.294;2023-05-21T05:01:46;99419.84;;;15.41;100.00
18819;BME280;9537;45.594;9.294;2023-05-21T05:02:47;99417.19;;;15.41;100.00
18819;BME280;9537;45.594;9.294;2023-05-21T05:03:49;99418.22;;;15.40;100.00
18819;BME280;9537;45.594;9.294;2023-05-21T05:04:50;99416.56;;;15.39;100.00
18819;BME280;9537;45.594;9.294;2023-05-21T05:05:53;99413.72;;;15.40;100.00
18819;BME280;9537;45.594;9.294;2023-05-21T05:06:54;99420.03;;;15.39;100.00
18819;BME280;9537;45.594;9.294;2023-05-21T05:07:56;99416.16;;;15.42;100.00
18819;BME280;9537;45.594;9.294;2023-05-21T05:08:57;99420.47;;;15.43;100.00
18819;BME280;9537;45.594;9.294;2023-05-21T05:10:00;99413.47;;;15.42;100.00
18819;BME280;9537;45.594;9.294;2023-05-21T05:11:01;99418.22;;;15.40;100.00
18819;BME280;9537;45.594;9.294;2023-05-21T05:12:03;99418.22;;;15.40;100.00
18819;BME280;9537;45.594;9.294;2023-05-21T05:13:05;99418.00;;;15.41;100.00
18819;BME280;9537;45.594;9.294;2023-05-21T05:14:07;99420.25;;;15.44;100.00
18819;BME280;9537;45.594;9.294;2023-05-21T05:15:09;99416.75;;;15.44;100.00
18819;BME280;9537;45.594;9.294;2023-05-21T05:16:12;99409.81;;;15.43;100.00
18819;BME280;9537;45.594;9.294;2023-05-21T05:17:14;99412.25;;;15.44;100.00
18819;BME280;9537;45.594;9.294;2023-05-21T05:18:16;99400.78;;;15.44;100.00
18819;BME280;9537;45.594;9.294;2023-05-21T05:19:17;99414.09;;;15.44;100.00
18819;BME280;9537;45.594;9.294;2023-05-21T05:20:18;99411.44;;;15.44;100.00
18819;BME280;9537;45.594;9.294;2023-05-21T05:21:21;99408.97;;;15.42;100.00
18819;BME280;9537;45.594;9.294;2023-05-21T05:22:23;99407.97;;;15.43;100.00
18819;BME280;9537;45.594;9.294;2023-05-21T05:23:24;99412.25;;;15.44;100.00
18819;BME280;9537;45.594;9.294;2023-05-21T05:24:26;99399.75;;;15.45;100.00
18819;BME280;9537;45.594;9.294;2023-05-21T05:25:27;99402.00;;;15.48;100.00
18819;BME280;9537;45.594;9.294;2023-05-21T05:26:30;99399.94;;;15.50;100.00
18819;BME280;9537;45.594;9.294;2023-05-21T05:27:30;99393.81;;;15.49;100.00
18819;BME280;9537;45.594;9.294;2023-05-21T05:28:32;99389.09;;;15.51;100.00
18819;BME280;9537;45.594;9.294;2023-05-21T05:29:33;99391.53;;;15.53;100.00
18819;BME280;9537;45.594;9.294;2023-05-21T05:30:37;99396.06;;;15.52;100.00